Sheridan, WY

10:28 AM MST on December 22, 2014 (GMT -0700)
Sheridan County | Change Station
CLOSE
Current Station
Airport
Location: Sheridan,
Elevation: 3967 ft
Nearby Weather Stations

Elev 3967 ft 44.76 °N, 106.97 °W | Updated 35 minutes ago

Mostly Cloudy
Mostly Cloudy
37 °F
Feels Like 25 °F
N
26
Wind Variable Wind from NW
Gusts 32 mph

Today
High -- | Low -- °F
--% Chance of Precip.
Yesterday
High -- | Low -- °F
Precip. -- in
7:42 AM 4:30 PM
New Moon, 1% visible
Pressure 29.78 in
Visibility 10.0 miles
Clouds Few 6000 ft
Mostly Cloudy 9000 ft
Windchill 25 °F
Dew Point 25 °F
Humidity 62%
Rainfall 0.00 in
Snow Depth Not available.
UV 1 out of 12
Pollen .10 out of 12
Air Quality Not available.
Flu Activity Not available.
METAR KSHR 221653Z AUTO 32023G28KT 10SM FEW060 BKN090 03/M04 A2973 RMK AO2 PK WND 31028/1603 SLP084 T00281039

More Conditions Fewer Conditions

Pressure 29.78 in
Visibility 10.0 miles
Clouds Few 6000 ft
Mostly Cloudy 9000 ft
Windchill 25 °F
Dew Point 25 °F
Humidity 62%
Rainfall 0.00 in
Snow Depth Not available.
UV 1 out of 12
Pollen .10 out of 12
Air Quality Not available.
Flu Activity Not available.
METAR KSHR 221653Z AUTO 32023G28KT 10SM FEW060 BKN090 03/M04 A2973 RMK AO2 PK WND 31028/1603 SLP084 T00281039

More Conditions Fewer Conditions

10-Day Weather Forecast

Almanac

Astronomy

Dec. 22, 2014 Rise Set
Actual Time
Civil Twilight
Nautical Twilight
Astronomical Twilight
Moon
Length of Visible Light
Length of Day
Tomorrow will be .
, % of the Moon is Illuminated

Today's Extremes

State Highs State Lows

Community

WunderPhotos

Upload Photos

1,779,653 photos uploaded!

WunderBlogs® & News

Nearby

Air Quality

  Air Quality AQ Index Pollutant
Not available.

Snow Depth

Station Depth Elevation

Earthquake Activity

City Distance Mag. Time & Date
Minimum magnitude displayed is 2.5.

Coastal Water Temperatures

Place Temperature

Nearby Weather Stations